sensor_id;sensor_type;location;lat;lon;timestamp;pressure;altitude;pressure_sealevel;temperature;humidity
12211;BME280;6168;42.658;23.298;2022-08-07T04:01:44;64209.31;;;-139.92;100.00
12211;BME280;6168;42.658;23.298;2022-08-07T04:04:14;64219.72;;;-139.92;100.00
12211;BME280;6168;42.658;23.298;2022-08-07T04:06:41;64223.88;;;-139.92;100.00
12211;BME280;6168;42.658;23.298;2022-08-07T04:09:10;64171.81;;;-139.92;100.00
12211;BME280;6168;42.658;23.298;2022-08-07T04:11:37;64207.22;;;-139.92;100.00
12211;BME280;6168;42.658;23.298;2022-08-07T04:14:05;64198.88;;;-139.92;100.00
12211;BME280;6168;42.658;23.298;2022-08-07T04:16:32;64205.13;;;-139.92;100.00
12211;BME280;6168;42.658;23.298;2022-08-07T04:19:01;64192.66;;;-139.92;100.00
12211;BME280;6168;42.658;23.298;2022-08-07T04:21:28;64205.13;;;-139.92;100.00
12211;BME280;6168;42.658;23.298;2022-08-07T04:23:56;64176.00;;;-139.92;100.00
12211;BME280;6168;42.658;23.298;2022-08-07T04:26:23;64213.47;;;-139.92;100.00
12211;BME280;6168;42.658;23.298;2022-08-07T04:28:50;64182.22;;;-139.92;100.00
12211;BME280;6168;42.658;23.298;2022-08-07T04:31:17;64228.03;;;-139.92;100.00
12211;BME280;6168;42.658;23.298;2022-08-07T04:33:45;64223.88;;;-139.92;100.00
12211;BME280;6168;42.658;23.298;2022-08-07T04:36:14;64223.88;;;-139.92;100.00
12211;BME280;6168;42.658;23.298;2022-08-07T04:38:41;64169.75;;;-139.92;100.00
12211;BME280;6168;42.658;23.298;2022-08-07T04:41:09;64200.97;;;-139.92;100.00
12211;BME280;6168;42.658;23.298;2022-08-07T04:43:38;64238.44;;;-139.92;100.00
12211;BME280;6168;42.658;23.298;2022-08-07T04:46:07;64190.56;;;-139.92;100.00
12211;BME280;6168;42.658;23.298;2022-08-07T04:48:43;64188.47;;;-139.92;100.00
12211;BME280;6168;42.658;23.298;2022-08-07T04:51:18;64194.72;;;-139.92;100.00
12211;BME280;6168;42.658;23.298;2022-08-07T04:53:56;64163.50;;;-139.92;100.00
12211;BME280;6168;42.658;23.298;2022-08-07T04:56:30;64157.25;;;-139.92;100.00
12211;BME280;6168;42.658;23.298;2022-08-07T04:59:04;64205.13;;;-139.92;100.00
12211;BME280;6168;42.658;23.298;2022-08-07T05:01:39;64203.06;;;-139.92;100.00
12211;BME280;6168;42.658;23.298;2022-08-07T05:04:11;64190.56;;;-139.92;100.00
12211;BME280;6168;42.658;23.298;2022-08-07T05:06:48;64186.41;;;-139.92;100.00
12211;BME280;6168;42.658;23.298;2022-08-07T05:09:26;64169.75;;;-139.92;100.00
12211;BME280;6168;42.658;23.298;2022-08-07T05:11:56;64169.75;;;-139.92;100.00
12211;BME280;6168;42.658;23.298;2022-08-07T05:14:30;64157.25;;;-139.92;100.00
12211;BME280;6168;42.658;23.298;2022-08-07T05:17:01;64169.75;;;-139.92;100.00
12211;BME280;6168;42.658;23.298;2022-08-07T05:19:34;64159.31;;;-139.92;100.00
12211;BME280;6168;42.658;23.298;2022-08-07T05:22:05;64151.00;;;-139.92;100.00
12211;BME280;6168;42.658;23.298;2022-08-07T05:24:35;64148.91;;;-139.92;100.00
12211;BME280;6168;42.658;23.298;2022-08-07T05:27:04;64163.50;;;-139.92;100.00
12211;BME280;6168;42.658;23.298;2022-08-07T05:29:34;64138.50;;;-139.92;100.00
12211;BME280;6168;42.658;23.298;2022-08-07T05:32:04;64148.91;;;-139.92;100.00
12211;BME280;6168;42.658;23.298;2022-08-07T05:34:33;64180.16;;;-139.92;100.00
12211;BME280;6168;42.658;23.298;2022-08-07T05:37:03;64157.25;;;-139.92;100.00
12211;BME280;6168;42.658;23.298;2022-08-07T05:39:31;64140.59;;;-139.92;100.00
12211;BME280;6168;42.658;23.298;2022-08-07T05:41:58;64119.78;;;-139.92;100.00
12211;BME280;6168;42.658;23.298;2022-08-07T05:44:25;64155.16;;;-139.92;100.00
12211;BME280;6168;42.658;23.298;2022-08-07T05:46:52;64096.88;;;-139.92;100.00
12211;BME280;6168;42.658;23.298;2022-08-07T05:49:20;64123.94;;;-139.92;100.00
12211;BME280;6168;42.658;23.298;2022-08-07T05:51:48;64126.00;;;-139.92;100.00
12211;BME280;6168;42.658;23.298;2022-08-07T05:54:16;64117.69;;;-139.92;100.00
12211;BME280;6168;42.658;23.298;2022-08-07T05:56:45;64098.94;;;-139.92;100.00
12211;BME280;6168;42.658;23.298;2022-08-07T05:59:14;64096.88;;;-139.92;100.00
12211;BME280;6168;42.658;23.298;2022-08-07T06:01:44;64090.63;;;-139.92;100.00
12211;BME280;6168;42.658;23.298;2022-08-07T06:04:14;64094.78;;;-139.92;100.00
12211;BME280;6168;42.658;23.298;2022-08-07T06:06:41;64069.78;;;-139.92;100.00
12211;BME280;6168;42.658;23.298;2022-08-07T06:09:09;64094.78;;;-139.92;100.00
12211;BME280;6168;42.658;23.298;2022-08-07T06:11:38;64069.78;;;-139.92;100.00
12211;BME280;6168;42.658;23.298;2022-08-07T06:14:06;64092.69;;;-139.92;100.00
12211;BME280;6168;42.658;23.298;2022-08-07T06:16:33;64111.44;;;-139.92;100.00
12211;BME280;6168;42.658;23.298;2022-08-07T06:19:00;64126.00;;;-139.92;100.00
12211;BME280;6168;42.658;23.298;2022-08-07T06:21:28;64088.53;;;-139.92;100.00
12211;BME280;6168;42.658;23.298;2022-08-07T06:23:56;64069.78;;;-139.92;100.00
12211;BME280;6168;42.658;23.298;2022-08-07T06:26:23;64078.13;;;-139.92;100.00
12211;BME280;6168;42.658;23.298;2022-08-07T06:28:53;64080.22;;;-139.92;100.00
12211;BME280;6168;42.658;23.298;2022-08-07T06:31:21;64113.53;;;-139.92;96.83
12211;BME280;6168;42.658;23.298;2022-08-07T06:33:48;64088.53;;;-139.92;99.79
12211;BME280;6168;42.658;23.298;2022-08-07T06:36:15;64055.22;;;-139.92;97.72
12211;BME280;6168;42.658;23.298;2022-08-07T06:38:43;64078.13;;;-139.92;98.31
12211;BME280;6168;42.658;23.298;2022-08-07T06:41:13;64067.72;;;-139.92;92.45
12211;BME280;6168;42.658;23.298;2022-08-07T06:43:42;64107.28;;;-139.92;91.22
12211;BME280;6168;42.658;23.298;2022-08-07T06:46:12;64094.78;;;-139.92;93.76
12211;BME280;6168;42.658;23.298;2022-08-07T06:48:40;64073.97;;;-139.92;92.01
12211;BME280;6168;42.658;23.298;2022-08-07T06:51:08;64063.53;;;-139.92;89.60
12211;BME280;6168;42.658;23.298;2022-08-07T06:53:38;64055.22;;;-139.92;88.71
12211;BME280;6168;42.658;23.298;2022-08-07T06:56:07;64082.28;;;-139.92;88.19
12211;BME280;6168;42.658;23.298;2022-08-07T06:58:34;64057.31;;;-139.92;87.57
12211;BME280;6168;42.658;23.298;2022-08-07T07:01:03;64046.88;;;-139.92;86.11
12211;BME280;6168;42.658;23.298;2022-08-07T07:03:36;64053.13;;;-139.92;86.15
12211;BME280;6168;42.658;23.298;2022-08-07T07:06:04;64028.16;;;-139.92;84.18
12211;BME280;6168;42.658;23.298;2022-08-07T07:08:31;64011.50;;;-139.92;83.93
12211;BME280;6168;42.658;23.298;2022-08-07T07:10:59;64032.31;;;-139.92;85.84
12211;BME280;6168;42.658;23.298;2022-08-07T07:13:30;64065.63;;;-139.92;90.40
12211;BME280;6168;42.658;23.298;2022-08-07T07:16:01;64046.88;;;-139.92;86.86
12211;BME280;6168;42.658;23.298;2022-08-07T07:18:35;64003.16;;;-139.92;86.90
12211;BME280;6168;42.658;23.298;2022-08-07T07:21:09;64040.66;;;-139.92;83.84
12211;BME280;6168;42.658;23.298;2022-08-07T07:23:38;64048.97;;;-139.92;82.30
12211;BME280;6168;42.658;23.298;2022-08-07T07:26:07;64059.38;;;-139.92;83.13
12211;BME280;6168;42.658;23.298;2022-08-07T07:28:37;64017.75;;;-139.92;80.37
12211;BME280;6168;42.658;23.298;2022-08-07T07:31:15;64019.81;;;-139.92;81.29
12211;BME280;6168;42.658;23.298;2022-08-07T07:33:47;64053.13;;;-139.92;82.39
12211;BME280;6168;42.658;23.298;2022-08-07T07:36:17;64032.31;;;-139.92;83.25
12211;BME280;6168;42.658;23.298;2022-08-07T07:38:45;64036.47;;;-139.92;82.50
12211;BME280;6168;42.658;23.298;2022-08-07T07:41:13;64048.97;;;-139.92;81.80
12211;BME280;6168;42.658;23.298;2022-08-07T07:43:43;63999.00;;;-139.92;82.13
12211;BME280;6168;42.658;23.298;2022-08-07T07:46:13;64032.31;;;-139.92;82.51
12211;BME280;6168;42.658;23.298;2022-08-07T07:48:40;64042.72;;;-139.92;78.81
12211;BME280;6168;42.658;23.298;2022-08-07T07:51:10;64034.41;;;-139.92;74.29
12211;BME280;6168;42.658;23.298;2022-08-07T07:53:41;64036.47;;;-139.92;72.02
12211;BME280;6168;42.658;23.298;2022-08-07T07:56:09;64017.75;;;-139.92;70.02
12211;BME280;6168;42.658;23.298;2022-08-07T07:58:38;64048.97;;;-139.92;64.63
12211;BME280;6168;42.658;23.298;2022-08-07T08:01:06;64019.81;;;-139.92;66.84
12211;BME280;6168;42.658;23.298;2022-08-07T08:03:35;63999.00;;;-139.92;63.30
12211;BME280;6168;42.658;23.298;2022-08-07T08:06:04;63990.66;;;-139.92;60.11
12211;BME280;6168;42.658;23.298;2022-08-07T08:08:35;63986.50;;;-139.92;61.24
12211;BME280;6168;42.658;23.298;2022-08-07T08:11:03;63959.44;;;-139.92;60.39
12211;BME280;6168;42.658;23.298;2022-08-07T08:13:31;63978.19;;;-139.92;57.04
12211;BME280;6168;42.658;23.298;2022-08-07T08:16:00;64013.56;;;-139.92;57.79
12211;BME280;6168;42.658;23.298;2022-08-07T08:18:28;63978.19;;;-139.92;60.10
12211;BME280;6168;42.658;23.298;2022-08-07T08:20:57;63974.00;;;-139.92;57.75
12211;BME280;6168;42.658;23.298;2022-08-07T08:23:28;64051.06;;;-139.92;59.62
12211;BME280;6168;42.658;23.298;2022-08-07T08:26:15;64019.81;;;-139.92;57.36
12211;BME280;6168;42.658;23.298;2022-08-07T08:29:02;64034.41;;;-139.92;57.00
12211;BME280;6168;42.658;23.298;2022-08-07T08:31:32;63990.66;;;-139.92;59.66
12211;BME280;6168;42.658;23.298;2022-08-07T08:34:02;64023.97;;;-139.92;55.41
12211;BME280;6168;42.658;23.298;2022-08-07T08:36:31;63978.19;;;-139.92;54.94
12211;BME280;6168;42.658;23.298;2022-08-07T08:39:00;63996.91;;;-139.92;54.54
12211;BME280;6168;42.658;23.298;2022-08-07T08:41:35;63953.19;;;-139.92;53.85
12211;BME280;6168;42.658;23.298;2022-08-07T08:44:09;63953.19;;;-139.92;55.90
12211;BME280;6168;42.658;23.298;2022-08-07T08:46:42;63988.59;;;-139.92;52.82
12211;BME280;6168;42.658;23.298;2022-08-07T08:49:19;63996.91;;;-139.92;54.51
12211;BME280;6168;42.658;23.298;2022-08-07T08:51:53;64015.66;;;-139.92;55.68
12211;BME280;6168;42.658;23.298;2022-08-07T08:54:25;63969.84;;;-139.92;54.79
12211;BME280;6168;42.658;23.298;2022-08-07T08:56:57;64009.41;;;-139.92;53.60
12211;BME280;6168;42.658;23.298;2022-08-07T08:59:29;63988.59;;;-139.92;55.39
12211;BME280;6168;42.658;23.298;2022-08-07T09:02:09;64007.31;;;-139.92;54.13
12211;BME280;6168;42.658;23.298;2022-08-07T09:04:43;63974.00;;;-139.92;55.01
12211;BME280;6168;42.658;23.298;2022-08-07T09:07:16;63971.94;;;-139.92;53.85
12211;BME280;6168;42.658;23.298;2022-08-07T09:09:53;63971.94;;;-139.92;52.82
12211;BME280;6168;42.658;23.298;2022-08-07T09:12:45;63996.91;;;-139.92;51.42
12211;BME280;6168;42.658;23.298;2022-08-07T09:15:27;63982.34;;;-139.92;52.73
12211;BME280;6168;42.658;23.298;2022-08-07T09:18:10;63978.19;;;-139.92;54.35
12211;BME280;6168;42.658;23.298;2022-08-07T09:20:47;63938.63;;;-139.92;53.37
12211;BME280;6168;42.658;23.298;2022-08-07T09:23:25;63967.78;;;-139.92;53.62
12211;BME280;6168;42.658;23.298;2022-08-07T09:26:09;63965.69;;;-139.92;51.50
12211;BME280;6168;42.658;23.298;2022-08-07T09:28:40;63907.38;;;-139.92;51.36
12211;BME280;6168;42.658;23.298;2022-08-07T09:31:15;63940.69;;;-139.92;50.79
12211;BME280;6168;42.658;23.298;2022-08-07T09:33:51;63940.69;;;-139.92;50.45
12211;BME280;6168;42.658;23.298;2022-08-07T09:36:28;63953.19;;;-139.92;48.36
12211;BME280;6168;42.658;23.298;2022-08-07T09:39:04;63974.00;;;-139.92;48.56
12211;BME280;6168;42.658;23.298;2022-08-07T09:41:39;63974.00;;;-139.92;52.17
12211;BME280;6168;42.658;23.298;2022-08-07T09:44:23;63957.34;;;-139.92;47.14
12211;BME280;6168;42.658;23.298;2022-08-07T09:47:02;63936.53;;;-139.92;49.48
12211;BME280;6168;42.658;23.298;2022-08-07T09:49:47;63938.63;;;-139.92;49.56
12211;BME280;6168;42.658;23.298;2022-08-07T09:52:22;63940.69;;;-139.92;47.83
12211;BME280;6168;42.658;23.298;2022-08-07T09:54:55;63944.88;;;-139.92;47.99
12211;BME280;6168;42.658;23.298;2022-08-07T10:00:44;63955.28;;;-139.92;48.39
12211;BME280;6168;42.658;23.298;2022-08-07T10:03:35;63969.84;;;-139.92;50.22
12211;BME280;6168;42.658;23.298;2022-08-07T10:06:30;63957.34;;;-139.92;49.02
12211;BME280;6168;42.658;23.298;2022-08-07T10:09:19;63949.03;;;-139.92;48.36
12211;BME280;6168;42.658;23.298;2022-08-07T10:11:54;63940.69;;;-139.92;50.48
12211;BME280;6168;42.658;23.298;2022-08-07T10:14:40;63909.47;;;-139.92;46.53
12211;BME280;6168;42.658;23.298;2022-08-07T10:20:23;63905.31;;;-139.92;45.15
12211;BME280;6168;42.658;23.298;2022-08-07T10:23:13;63919.88;;;-139.92;43.78
12211;BME280;6168;42.658;23.298;2022-08-07T10:25:56;63878.25;;;-139.92;44.40
12211;BME280;6168;42.658;23.298;2022-08-07T10:28:39;63938.63;;;-139.92;44.06
12211;BME280;6168;42.658;23.298;2022-08-07T10:31:27;63919.88;;;-139.92;45.77
12211;BME280;6168;42.658;23.298;2022-08-07T10:34:06;63930.28;;;-139.92;45.13
12211;BME280;6168;42.658;23.298;2022-08-07T10:36:43;63965.69;;;-139.92;44.93
12211;BME280;6168;42.658;23.298;2022-08-07T10:39:25;63946.94;;;-139.92;46.23
12211;BME280;6168;42.658;23.298;2022-08-07T10:42:06;63934.47;;;-139.92;46.66
12211;BME280;6168;42.658;23.298;2022-08-07T10:44:42;63940.69;;;-139.92;46.41
12211;BME280;6168;42.658;23.298;2022-08-07T10:47:18;63963.59;;;-139.92;46.33
12211;BME280;6168;42.658;23.298;2022-08-07T10:49:53;63940.69;;;-139.92;47.54
12211;BME280;6168;42.658;23.298;2022-08-07T10:52:27;63990.66;;;-139.92;46.63
12211;BME280;6168;42.658;23.298;2022-08-07T10:55:05;63949.03;;;-139.92;47.79
12211;BME280;6168;42.658;23.298;2022-08-07T10:57:42;63969.84;;;-139.92;49.76
12211;BME280;6168;42.658;23.298;2022-08-07T11:00:13;63982.34;;;-139.92;49.33
12211;BME280;6168;42.658;23.298;2022-08-07T11:02:45;63986.50;;;-139.92;49.28
12211;BME280;6168;42.658;23.298;2022-08-07T11:05:29;63963.59;;;-139.92;50.23
12211;BME280;6168;42.658;23.298;2022-08-07T11:08:04;63957.34;;;-139.92;50.67
12211;BME280;6168;42.658;23.298;2022-08-07T11:10:39;63942.78;;;-139.92;49.47
12211;BME280;6168;42.658;23.298;2022-08-07T11:13:11;63976.09;;;-139.92;51.16
12211;BME280;6168;42.658;23.298;2022-08-07T11:15:41;63976.09;;;-139.92;50.61
12211;BME280;6168;42.658;23.298;2022-08-07T11:18:15;63944.88;;;-139.92;50.17
12211;BME280;6168;42.658;23.298;2022-08-07T11:20:50;63976.09;;;-139.92;49.93
12211;BME280;6168;42.658;23.298;2022-08-07T11:23:22;63999.00;;;-139.92;50.14
12211;BME280;6168;42.658;23.298;2022-08-07T11:25:53;63988.59;;;-139.92;50.68
12211;BME280;6168;42.658;23.298;2022-08-07T11:28:27;63980.25;;;-139.92;49.86
12211;BME280;6168;42.658;23.298;2022-08-07T11:31:08;63919.88;;;-139.92;48.22
12211;BME280;6168;42.658;23.298;2022-08-07T11:33:42;63974.00;;;-139.92;48.40
12211;BME280;6168;42.658;23.298;2022-08-07T11:36:17;63986.50;;;-139.92;48.18
12211;BME280;6168;42.658;23.298;2022-08-07T11:38:57;63961.53;;;-139.92;48.89
12211;BME280;6168;42.658;23.298;2022-08-07T11:41:28;63915.72;;;-139.92;49.81
12211;BME280;6168;42.658;23.298;2022-08-07T11:44:08;63949.03;;;-139.92;48.03
12211;BME280;6168;42.658;23.298;2022-08-07T11:46:47;63934.47;;;-139.92;48.17
12211;BME280;6168;42.658;23.298;2022-08-07T11:49:51;63957.34;;;-139.92;49.28
12211;BME280;6168;42.658;23.298;2022-08-07T11:52:38;63961.53;;;-139.92;50.71
12211;BME280;6168;42.658;23.298;2022-08-07T11:55:12;63942.78;;;-139.92;51.75
12211;BME280;6168;42.658;23.298;2022-08-07T11:57:48;63940.69;;;-139.92;51.19
12211;BME280;6168;42.658;23.298;2022-08-07T12:00:18;63932.38;;;-139.92;51.36
12211;BME280;6168;42.658;23.298;2022-08-07T12:03:17;63996.91;;;-139.92;51.68
12211;BME280;6168;42.658;23.298;2022-08-07T12:05:59;63946.94;;;-139.92;52.34
12211;BME280;6168;42.658;23.298;2022-08-07T12:08:35;63965.69;;;-139.92;51.06
12211;BME280;6168;42.658;23.298;2022-08-07T12:11:08;63959.44;;;-139.92;52.39
12211;BME280;6168;42.658;23.298;2022-08-07T12:13:41;63951.13;;;-139.92;51.57
12211;BME280;6168;42.658;23.298;2022-08-07T12:16:12;63992.75;;;-139.92;50.67
12211;BME280;6168;42.658;23.298;2022-08-07T12:18:47;63982.34;;;-139.92;53.26
12211;BME280;6168;42.658;23.298;2022-08-07T12:21:25;63955.28;;;-139.92;53.38
12211;BME280;6168;42.658;23.298;2022-08-07T12:24:03;63967.78;;;-139.92;51.52
12211;BME280;6168;42.658;23.298;2022-08-07T12:26:36;63982.34;;;-139.92;50.80
12211;BME280;6168;42.658;23.298;2022-08-07T12:29:09;63996.91;;;-139.92;51.04
12211;BME280;6168;42.658;23.298;2022-08-07T12:31:40;63974.00;;;-139.92;51.65
12211;BME280;6168;42.658;23.298;2022-08-07T12:34:10;63951.13;;;-139.92;51.95
12211;BME280;6168;42.658;23.298;2022-08-07T12:36:39;63953.19;;;-139.92;51.46
12211;BME280;6168;42.658;23.298;2022-08-07T12:39:11;63949.03;;;-139.92;50.17
12211;BME280;6168;42.658;23.298;2022-08-07T12:41:40;63953.19;;;-139.92;50.77
12211;BME280;6168;42.658;23.298;2022-08-07T12:44:08;63932.38;;;-139.92;50.32
12211;BME280;6168;42.658;23.298;2022-08-07T12:46:48;63903.22;;;-139.92;48.12
12211;BME280;6168;42.658;23.298;2022-08-07T12:49:25;63942.78;;;-139.92;47.93
12211;BME280;6168;42.658;23.298;2022-08-07T12:52:02;63924.03;;;-139.92;47.48
12211;BME280;6168;42.658;23.298;2022-08-07T12:54:37;63959.44;;;-139.92;47.41
12211;BME280;6168;42.658;23.298;2022-08-07T12:57:06;63919.88;;;-139.92;45.63
12211;BME280;6168;42.658;23.298;2022-08-07T12:59:36;63884.47;;;-139.92;46.42
12211;BME280;6168;42.658;23.298;2022-08-07T13:02:15;63892.81;;;-139.92;45.74
12211;BME280;6168;42.658;23.298;2022-08-07T13:05:02;63882.41;;;-139.92;44.57
12211;BME280;6168;42.658;23.298;2022-08-07T13:10:37;63940.69;;;-139.92;45.12
12211;BME280;6168;42.658;23.298;2022-08-07T13:13:16;63911.56;;;-139.92;44.05
12211;BME280;6168;42.658;23.298;2022-08-07T13:15:51;63911.56;;;-139.92;46.06
12211;BME280;6168;42.658;23.298;2022-08-07T13:18:26;63907.38;;;-139.92;46.70
12211;BME280;6168;42.658;23.298;2022-08-07T13:21:01;63913.63;;;-139.92;45.19
12211;BME280;6168;42.658;23.298;2022-08-07T13:23:37;63890.72;;;-139.92;42.66
12211;BME280;6168;42.658;23.298;2022-08-07T13:26:12;63878.25;;;-139.92;46.34
12211;BME280;6168;42.658;23.298;2022-08-07T13:28:56;63909.47;;;-139.92;42.60
12211;BME280;6168;42.658;23.298;2022-08-07T13:31:29;63890.72;;;-139.92;40.66
12211;BME280;6168;42.658;23.298;2022-08-07T13:34:00;63915.72;;;-139.92;42.76
12211;BME280;6168;42.658;23.298;2022-08-07T13:36:33;63888.66;;;-139.92;42.26
12211;BME280;6168;42.658;23.298;2022-08-07T13:39:05;63890.72;;;-139.92;41.44
12211;BME280;6168;42.658;23.298;2022-08-07T13:41:41;63892.81;;;-139.92;42.59
12211;BME280;6168;42.658;23.298;2022-08-07T13:44:10;63894.91;;;-139.92;42.50
12211;BME280;6168;42.658;23.298;2022-08-07T13:46:41;63853.25;;;-139.92;42.96
12211;BME280;6168;42.658;23.298;2022-08-07T13:49:11;63857.41;;;-139.92;42.81
12211;BME280;6168;42.658;23.298;2022-08-07T13:51:40;63894.91;;;-139.92;43.67
12211;BME280;6168;42.658;23.298;2022-08-07T13:54:10;63903.22;;;-139.92;43.20
12211;BME280;6168;42.658;23.298;2022-08-07T13:56:40;63888.66;;;-139.92;44.53
12211;BME280;6168;42.658;23.298;2022-08-07T13:59:11;63890.72;;;-139.92;45.27
12211;BME280;6168;42.658;23.298;2022-08-07T14:01:47;63894.91;;;-139.92;44.70
12211;BME280;6168;42.658;23.298;2022-08-07T14:04:17;63913.63;;;-139.92;45.07
12211;BME280;6168;42.658;23.298;2022-08-07T14:06:47;63917.78;;;-139.92;42.78
12211;BME280;6168;42.658;23.298;2022-08-07T14:09:18;63911.56;;;-139.92;43.26
12211;BME280;6168;42.658;23.298;2022-08-07T14:11:51;63915.72;;;-139.92;42.61
12211;BME280;6168;42.658;23.298;2022-08-07T14:14:21;63969.84;;;-139.92;42.78
12211;BME280;6168;42.658;23.298;2022-08-07T14:16:51;63944.88;;;-139.92;42.33
12211;BME280;6168;42.658;23.298;2022-08-07T14:19:28;63951.13;;;-139.92;42.76
12211;BME280;6168;42.658;23.298;2022-08-07T14:21:57;63913.63;;;-139.92;44.07
12211;BME280;6168;42.658;23.298;2022-08-07T14:24:28;63907.38;;;-139.92;43.37
12211;BME280;6168;42.658;23.298;2022-08-07T14:26:59;63890.72;;;-139.92;41.75
12211;BME280;6168;42.658;23.298;2022-08-07T14:29:32;63928.22;;;-139.92;43.51
12211;BME280;6168;42.658;23.298;2022-08-07T14:32:03;63907.38;;;-139.92;44.88
12211;BME280;6168;42.658;23.298;2022-08-07T14:34:33;63949.03;;;-139.92;45.45
12211;BME280;6168;42.658;23.298;2022-08-07T14:37:08;63955.28;;;-139.92;45.77
12211;BME280;6168;42.658;23.298;2022-08-07T14:39:36;63969.84;;;-139.92;46.14
12211;BME280;6168;42.658;23.298;2022-08-07T14:42:07;63951.13;;;-139.92;47.49
12211;BME280;6168;42.658;23.298;2022-08-07T14:44:36;63982.34;;;-139.92;48.29
12211;BME280;6168;42.658;23.298;2022-08-07T14:47:04;64003.16;;;-139.92;49.18
12211;BME280;6168;42.658;23.298;2022-08-07T14:49:34;63944.88;;;-139.92;49.84
12211;BME280;6168;42.658;23.298;2022-08-07T14:52:03;63957.34;;;-139.92;49.62
12211;BME280;6168;42.658;23.298;2022-08-07T14:54:33;63932.38;;;-139.92;48.99
12211;BME280;6168;42.658;23.298;2022-08-07T14:57:02;63932.38;;;-139.92;49.56
12211;BME280;6168;42.658;23.298;2022-08-07T14:59:34;63944.88;;;-139.92;52.32
12211;BME280;6168;42.658;23.298;2022-08-07T15:02:13;63911.56;;;-139.92;48.26
12211;BME280;6168;42.658;23.298;2022-08-07T15:04:42;63930.28;;;-139.92;47.81
12211;BME280;6168;42.658;23.298;2022-08-07T15:07:15;63969.84;;;-139.92;47.46
12211;BME280;6168;42.658;23.298;2022-08-07T15:09:44;63942.78;;;-139.92;46.79
12211;BME280;6168;42.658;23.298;2022-08-07T15:12:14;63944.88;;;-139.92;47.73
12211;BME280;6168;42.658;23.298;2022-08-07T15:14:49;63963.59;;;-139.92;48.08
12211;BME280;6168;42.658;23.298;2022-08-07T15:17:18;63959.44;;;-139.92;47.75
12211;BME280;6168;42.658;23.298;2022-08-07T15:19:49;63974.00;;;-139.92;48.71
12211;BME280;6168;42.658;23.298;2022-08-07T15:22:18;63967.78;;;-139.92;49.37
12211;BME280;6168;42.658;23.298;2022-08-07T15:24:48;63978.19;;;-139.92;50.58
12211;BME280;6168;42.658;23.298;2022-08-07T15:27:19;63965.69;;;-139.92;49.79
12211;BME280;6168;42.658;23.298;2022-08-07T15:29:50;63957.34;;;-139.92;49.37
12211;BME280;6168;42.658;23.298;2022-08-07T15:32:19;63940.69;;;-139.92;48.82
12211;BME280;6168;42.658;23.298;2022-08-07T15:34:48;63949.03;;;-139.92;48.56
12211;BME280;6168;42.658;23.298;2022-08-07T15:37:18;63955.28;;;-139.92;48.24
12211;BME280;6168;42.658;23.298;2022-08-07T15:39:50;63940.69;;;-139.92;48.38
12211;BME280;6168;42.658;23.298;2022-08-07T15:42:46;63988.59;;;-139.92;47.34
12211;BME280;6168;42.658;23.298;2022-08-07T15:45:26;63911.56;;;-139.92;47.09
12211;BME280;6168;42.658;23.298;2022-08-07T15:47:57;63928.22;;;-139.92;47.58
12211;BME280;6168;42.658;23.298;2022-08-07T15:50:27;63953.19;;;-139.92;47.41
12211;BME280;6168;42.658;23.298;2022-08-07T15:52:58;63955.28;;;-139.92;47.24
12211;BME280;6168;42.658;23.298;2022-08-07T15:55:27;63976.09;;;-139.92;47.11
12211;BME280;6168;42.658;23.298;2022-08-07T15:57:56;63957.34;;;-139.92;48.09
12211;BME280;6168;42.658;23.298;2022-08-07T16:00:30;63951.13;;;-139.92;48.65
12211;BME280;6168;42.658;23.298;2022-08-07T16:02:58;63967.78;;;-139.92;48.75
12211;BME280;6168;42.658;23.298;2022-08-07T16:05:27;63974.00;;;-139.92;48.81
12211;BME280;6168;42.658;23.298;2022-08-07T16:08:01;63963.59;;;-139.92;49.68
12211;BME280;6168;42.658;23.298;2022-08-07T16:10:30;63986.50;;;-139.92;48.86
12211;BME280;6168;42.658;23.298;2022-08-07T16:13:09;63949.03;;;-139.92;50.37
12211;BME280;6168;42.658;23.298;2022-08-07T16:16:03;63999.00;;;-139.92;50.88
12211;BME280;6168;42.658;23.298;2022-08-07T16:18:41;63980.25;;;-139.92;49.96
12211;BME280;6168;42.658;23.298;2022-08-07T16:21:14;63971.94;;;-139.92;49.66
12211;BME280;6168;42.658;23.298;2022-08-07T16:23:54;63915.72;;;-139.92;50.43
12211;BME280;6168;42.658;23.298;2022-08-07T16:26:51;63988.59;;;-139.92;50.35
12211;BME280;6168;42.658;23.298;2022-08-07T16:29:29;64003.16;;;-139.92;50.31
12211;BME280;6168;42.658;23.298;2022-08-07T16:32:01;63999.00;;;-139.92;50.06
12211;BME280;6168;42.658;23.298;2022-08-07T16:34:41;63978.19;;;-139.92;50.96
12211;BME280;6168;42.658;23.298;2022-08-07T16:37:25;63955.28;;;-139.92;50.73
12211;BME280;6168;42.658;23.298;2022-08-07T16:40:21;64036.47;;;-139.92;51.54
12211;BME280;6168;42.658;23.298;2022-08-07T16:43:02;63996.91;;;-139.92;50.24
12211;BME280;6168;42.658;23.298;2022-08-07T16:45:50;64009.41;;;-139.92;51.14
12211;BME280;6168;42.658;23.298;2022-08-07T16:48:50;64005.25;;;-139.92;53.32
12211;BME280;6168;42.658;23.298;2022-08-07T16:51:31;63994.84;;;-139.92;50.95
12211;BME280;6168;42.658;23.298;2022-08-07T16:54:12;64011.50;;;-139.92;51.89
12211;BME280;6168;42.658;23.298;2022-08-07T16:57:00;64023.97;;;-139.92;51.84
12211;BME280;6168;42.658;23.298;2022-08-07T16:59:37;63992.75;;;-139.92;52.79
12211;BME280;6168;42.658;23.298;2022-08-07T17:02:21;63957.34;;;-139.92;52.25
12211;BME280;6168;42.658;23.298;2022-08-07T17:05:08;63996.91;;;-139.92;52.00
12211;BME280;6168;42.658;23.298;2022-08-07T17:07:46;63961.53;;;-139.92;52.97
12211;BME280;6168;42.658;23.298;2022-08-07T17:10:20;63988.59;;;-139.92;54.26
12211;BME280;6168;42.658;23.298;2022-08-07T17:12:52;63999.00;;;-139.92;54.26
12211;BME280;6168;42.658;23.298;2022-08-07T17:15:30;64001.09;;;-139.92;54.75
12211;BME280;6168;42.658;23.298;2022-08-07T17:18:08;64015.66;;;-139.92;56.03
12211;BME280;6168;42.658;23.298;2022-08-07T17:20:39;64003.16;;;-139.92;55.95